Main page
METAR-TAF:

METAR-TAF

Airports :

Xi'an, China

Xi'an Xianyang International Airport

latitude: 34-26N, longitude: 108-45E, elevation: 479 m

Current weather observation

The report was made 22 minutes ago, at 10:00 UTC
Wind 10 kt from the East
Temperature 34°C
Humidity 26%
Pressure 1004 hPa
Visibility 10 km or more
no clouds below 1500 m and no cumulonimbus

METAR: ZLXY 281000Z 08005MPS CAVOK 34/12 Q1004 NOSIG

Time: 18:22 (10:22 UTC)

Forecast

The report was made 7 hours and 18 minutes ago, at 03:04 UTC
Forecast valid from 28 at 06 UTC to 29 at 06 UTC
Wind 6 kt from the West/Southwest
Visibility: 6000 m

TAF: ZLXY 280304Z 2806/2906 24003MPS 6000 NSC TX36/2808Z TN14/2821Z

Weather observations and forecasts of more than 4000 airports (METAR and TAF reports).

The available stations are represented by yellow and red dots on the map.

Hover mouse over dot to see the name of the station.

Then click to see weather observations and forecasts.

To change the map : click on the green buttons with a black cross to zoom in, on the green button with a dash to zoom out, or on the green arrows for adjacent maps.


METAR-TAF: